createdAt,value
2022-12-06T00:01:49.285Z,48.00
2022-12-06T00:04:16.247Z,66.47
2022-12-06T00:06:48.129Z,65.43
2022-12-06T00:12:03.592Z,49.77
2022-12-06T00:14:30.159Z,54.73
2022-12-06T00:16:56.887Z,56.40
2022-12-06T00:19:23.609Z,53.23
2022-12-06T00:24:34.548Z,61.33
2022-12-06T00:27:01.059Z,56.03
2022-12-06T00:29:27.624Z,67.60
2022-12-06T00:31:54.246Z,63.13
2022-12-06T00:37:05.254Z,57.57
2022-12-06T00:42:15.550Z,52.47
2022-12-06T00:44:42.057Z,58.97
2022-12-06T00:47:08.596Z,70.13
2022-12-06T00:49:35.158Z,53.90
2022-12-06T00:52:01.843Z,51.77
2022-12-06T00:54:28.391Z,47.73
2022-12-06T00:56:54.981Z,54.90
2022-12-06T00:59:21.601Z,52.73
2022-12-06T01:01:48.221Z,54.00
2022-12-06T01:04:14.770Z,53.03
2022-12-06T01:06:41.416Z,64.73
2022-12-06T01:09:08.563Z,57.70
2022-12-06T01:11:35.151Z,70.23
2022-12-06T01:16:46.140Z,56.87
2022-12-06T01:21:57.340Z,54.37
2022-12-06T01:24:23.841Z,53.13
2022-12-06T01:26:50.663Z,50.77
2022-12-06T01:29:17.540Z,61.63
2022-12-06T01:34:28.512Z,51.83
2022-12-06T01:36:55.019Z,55.30
2022-12-06T01:39:21.855Z,51.13
2022-12-06T01:41:48.338Z,53.87
2022-12-06T01:44:33.473Z,52.73
2022-12-06T01:47:00.598Z,56.23
2022-12-06T01:49:28.026Z,48.47
2022-12-06T01:54:40.461Z,49.93
2022-12-06T01:57:07.320Z,50.23
2022-12-06T01:59:33.896Z,55.03
2022-12-06T02:02:00.577Z,45.83
2022-12-06T02:04:27.272Z,55.47
2022-12-06T02:06:53.893Z,50.53
2022-12-06T02:09:20.671Z,54.60
2022-12-06T02:11:47.605Z,51.30
2022-12-06T02:14:15.315Z,48.83
2022-12-06T02:19:38.869Z,47.43
2022-12-06T02:22:07.932Z,50.90
2022-12-06T02:24:49.774Z,48.87
2022-12-06T02:30:11.100Z,46.07
2022-12-06T02:32:55.047Z,46.77
2022-12-06T02:35:42.255Z,52.73
2022-12-06T02:38:13.037Z,51.17
2022-12-06T02:40:41.989Z,53.00
2022-12-06T02:43:10.025Z,50.23
2022-12-06T02:45:38.706Z,50.20
2022-12-06T02:48:05.553Z,53.00
2022-12-06T02:50:33.180Z,52.53
2022-12-06T02:53:00.034Z,53.37
2022-12-06T02:55:26.638Z,49.43
2022-12-06T02:57:53.395Z,48.03
2022-12-06T03:00:29.617Z,46.40
2022-12-06T03:06:04.475Z,45.70
2022-12-06T03:08:40.141Z,48.43
2022-12-06T03:11:06.716Z,46.27
2022-12-06T03:13:39.219Z,43.83
2022-12-06T03:16:11.732Z,47.40
2022-12-06T03:18:47.534Z,44.07
2022-12-06T03:21:16.209Z,45.70
2022-12-06T03:23:43.630Z,53.37
2022-12-06T03:26:10.836Z,45.97
2022-12-06T03:28:37.732Z,46.30
2022-12-06T03:31:11.760Z,41.83
2022-12-06T03:33:47.028Z,44.53
2022-12-06T03:38:59.109Z,47.07
2022-12-06T03:44:17.265Z,47.83
2022-12-06T03:49:40.574Z,43.70
2022-12-06T03:52:07.273Z,43.80
2022-12-06T03:54:33.766Z,45.73
2022-12-06T03:57:00.511Z,49.57
2022-12-06T04:02:11.219Z,47.30
2022-12-06T04:04:37.834Z,45.03
2022-12-06T04:07:04.485Z,43.27
2022-12-06T04:09:49.659Z,43.47
2022-12-06T04:12:35.041Z,45.33
2022-12-06T04:15:01.831Z,43.67
2022-12-06T04:17:47.253Z,42.47
2022-12-06T04:20:13.932Z,45.87
2022-12-06T04:22:59.763Z,40.43
2022-12-06T04:25:26.462Z,42.20
2022-12-06T04:28:11.720Z,45.10
2022-12-06T04:30:57.074Z,45.70
2022-12-06T04:33:42.521Z,45.47
2022-12-06T04:36:28.701Z,46.23
2022-12-06T04:38:55.318Z,47.47
2022-12-06T04:41:40.574Z,49.10
2022-12-06T04:44:07.219Z,47.20
2022-12-06T04:46:33.814Z,44.93
2022-12-06T04:49:00.477Z,47.77
2022-12-06T04:51:27.421Z,49.57
2022-12-06T04:53:55.607Z,43.90
2022-12-06T04:56:22.286Z,53.17
2022-12-06T04:58:49.082Z,52.53
2022-12-06T05:01:17.304Z,51.77
2022-12-06T05:03:44.615Z,48.97
2022-12-06T05:06:11.428Z,44.67
2022-12-06T05:08:38.060Z,46.73
2022-12-06T05:11:04.839Z,50.73
2022-12-06T05:13:31.444Z,47.50
2022-12-06T05:15:59.001Z,51.67
2022-12-06T05:21:13.104Z,49.70
2022-12-06T05:23:39.774Z,48.47
2022-12-06T05:26:07.601Z,48.53
2022-12-06T05:28:34.311Z,49.47
2022-12-06T05:31:01.086Z,54.93
2022-12-06T05:33:27.886Z,46.63
2022-12-06T05:35:54.464Z,51.93
2022-12-06T05:38:21.360Z,54.30
2022-12-06T05:40:47.968Z,52.27
2022-12-06T05:43:14.666Z,49.27
2022-12-06T05:45:41.894Z,50.63
2022-12-06T05:48:08.498Z,50.93
2022-12-06T05:50:35.431Z,45.73
2022-12-06T05:55:46.299Z,46.33
2022-12-06T05:58:12.916Z,44.47
2022-12-06T06:00:39.582Z,48.30
2022-12-06T06:03:06.311Z,51.50
2022-12-06T06:05:33.236Z,42.40
2022-12-06T06:07:59.915Z,48.37
2022-12-06T06:10:26.725Z,50.93
2022-12-06T06:12:53.437Z,44.10
2022-12-06T06:15:20.059Z,39.30
2022-12-06T06:17:46.660Z,44.97
2022-12-06T06:20:14.018Z,45.27
2022-12-06T06:22:40.757Z,47.90
2022-12-06T06:25:07.651Z,37.97
2022-12-06T06:30:19.128Z,42.80
2022-12-06T06:32:45.949Z,42.90
2022-12-06T06:35:12.608Z,47.03
2022-12-06T06:37:39.137Z,41.40
2022-12-06T06:42:50.263Z,47.07
2022-12-06T06:45:17.161Z,46.73
2022-12-06T06:47:43.900Z,45.80
2022-12-06T06:50:11.268Z,51.97
2022-12-06T06:52:38.146Z,53.37
2022-12-06T06:55:05.239Z,59.33
2022-12-06T06:57:31.884Z,56.47
2022-12-06T06:59:58.775Z,55.37
2022-12-06T07:02:25.729Z,53.43
2022-12-06T07:04:52.816Z,54.20
2022-12-06T07:07:21.184Z,56.40
2022-12-06T07:09:48.003Z,59.90
2022-12-06T07:12:15.340Z,54.13
2022-12-06T07:14:41.975Z,56.07
2022-12-06T07:17:08.620Z,60.27
2022-12-06T07:19:35.303Z,58.90
2022-12-06T07:22:01.955Z,55.93
2022-12-06T07:24:28.598Z,53.53
2022-12-06T07:26:57.108Z,62.50
2022-12-06T07:29:23.946Z,57.80
2022-12-06T07:31:50.563Z,51.20
2022-12-06T07:34:17.228Z,64.70
2022-12-06T07:36:43.934Z,62.33
2022-12-06T07:39:14.820Z,61.50
2022-12-06T07:42:01.113Z,60.33
2022-12-06T07:44:59.955Z,58.50
2022-12-06T07:47:38.715Z,59.53
2022-12-06T07:50:05.968Z,56.50
2022-12-06T07:52:33.339Z,59.67
2022-12-06T07:55:00.413Z,57.97
2022-12-06T07:57:27.166Z,56.87
2022-12-06T07:59:53.816Z,61.87
2022-12-06T08:02:21.571Z,59.77
2022-12-06T08:04:48.502Z,60.47
2022-12-06T08:07:15.694Z,62.80
2022-12-06T08:12:27.339Z,59.90
2022-12-06T08:14:59.355Z,119.50
2022-12-06T08:17:26.962Z,63.73
2022-12-06T08:19:53.704Z,55.43
2022-12-06T08:22:20.382Z,65.33
2022-12-06T08:24:46.969Z,66.53
2022-12-06T08:27:14.074Z,63.10
2022-12-06T08:29:40.872Z,63.13
2022-12-06T08:32:07.587Z,62.87
2022-12-06T08:34:34.215Z,62.93
2022-12-06T08:37:03.583Z,64.57
2022-12-06T08:39:30.431Z,65.23
2022-12-06T08:41:58.545Z,64.67
2022-12-06T08:44:26.223Z,62.70
2022-12-06T08:46:54.108Z,62.53
2022-12-06T08:49:20.970Z,60.57
2022-12-06T08:51:48.718Z,67.20
2022-12-06T08:54:16.034Z,68.40
2022-12-06T08:56:42.669Z,61.20
2022-12-06T08:59:09.290Z,60.03
2022-12-06T09:01:38.875Z,56.83
2022-12-06T09:04:06.368Z,60.80
2022-12-06T09:06:33.501Z,64.47
2022-12-06T09:09:00.722Z,58.50
2022-12-06T09:11:27.423Z,66.23
2022-12-06T09:13:54.130Z,64.27
2022-12-06T09:16:21.829Z,73.27
2022-12-06T09:18:49.097Z,79.80
2022-12-06T09:21:16.523Z,90.80
2022-12-06T09:23:43.304Z,92.43
2022-12-06T09:26:10.289Z,101.60
2022-12-06T09:28:37.613Z,105.33
2022-12-06T09:31:04.451Z,91.80
2022-12-06T09:33:31.559Z,84.07
2022-12-06T09:36:00.206Z,82.60
2022-12-06T09:38:28.220Z,95.77
2022-12-06T09:40:58.089Z,88.07
2022-12-06T09:43:44.053Z,75.97
2022-12-06T09:46:19.818Z,84.33
2022-12-06T09:48:51.163Z,88.70
2022-12-06T09:51:38.101Z,89.73
2022-12-06T09:54:06.482Z,95.10
2022-12-06T09:56:39.614Z,99.33
2022-12-06T09:59:24.864Z,93.53
2022-12-06T10:02:06.900Z,94.30
2022-12-06T10:04:39.900Z,103.47
2022-12-06T10:07:12.268Z,96.80
2022-12-06T10:09:55.991Z,97.50
2022-12-06T10:12:43.431Z,90.70
2022-12-06T10:15:28.780Z,93.50
2022-12-06T10:17:55.524Z,93.50
2022-12-06T10:20:41.022Z,93.90
2022-12-06T10:23:10.598Z,91.00
2022-12-06T10:25:43.078Z,87.87
2022-12-06T10:28:09.863Z,89.03
2022-12-06T10:30:37.151Z,91.00
2022-12-06T10:33:05.833Z,81.80
2022-12-06T10:35:35.476Z,83.20
2022-12-06T10:38:02.259Z,91.37
2022-12-06T10:40:32.064Z,85.53
2022-12-06T10:43:06.462Z,92.50
2022-12-06T10:45:57.013Z,92.67
2022-12-06T10:48:27.352Z,96.33
2022-12-06T10:51:13.080Z,100.73
2022-12-06T10:53:41.816Z,94.20
2022-12-06T10:56:14.813Z,96.77
2022-12-06T10:58:43.942Z,100.73
2022-12-06T11:01:16.311Z,92.43
2022-12-06T11:03:44.879Z,95.40
2022-12-06T11:06:11.710Z,94.87
2022-12-06T11:08:39.993Z,92.57
2022-12-06T11:11:10.223Z,79.97
2022-12-06T11:13:49.110Z,84.10
2022-12-06T11:16:23.557Z,94.90
2022-12-06T11:18:50.436Z,98.47
2022-12-06T11:21:35.754Z,88.47
2022-12-06T11:24:09.017Z,91.40
2022-12-06T11:26:40.441Z,91.27
2022-12-06T11:29:11.036Z,94.93
2022-12-06T11:31:45.673Z,92.73
2022-12-06T11:34:32.983Z,90.40
2022-12-06T11:37:00.789Z,85.67
2022-12-06T11:39:28.036Z,79.97
2022-12-06T11:41:55.649Z,79.20
2022-12-06T11:44:25.885Z,77.70
2022-12-06T11:47:01.913Z,83.97
2022-12-06T11:49:31.328Z,85.00
2022-12-06T11:51:58.294Z,86.00
2022-12-06T11:54:28.569Z,95.97
2022-12-06T11:56:57.291Z,92.23
2022-12-06T11:59:27.079Z,87.87
2022-12-06T12:04:42.764Z,75.80
2022-12-06T12:07:09.482Z,81.07
2022-12-06T12:09:46.724Z,84.17
2022-12-06T12:12:16.411Z,84.60
2022-12-06T12:14:49.595Z,79.97
2022-12-06T12:17:21.589Z,80.40
2022-12-06T12:19:52.304Z,78.20
2022-12-06T12:22:28.239Z,80.50
2022-12-06T12:25:17.773Z,79.27
2022-12-06T12:27:45.981Z,84.23
2022-12-06T12:30:18.935Z,83.83
2022-12-06T12:32:46.022Z,85.73
2022-12-06T12:35:21.809Z,77.30
2022-12-06T12:37:48.888Z,81.47
2022-12-06T12:40:22.007Z,82.37
2022-12-06T12:42:48.916Z,76.07
2022-12-06T12:45:18.055Z,73.23
2022-12-06T12:48:05.132Z,72.33
2022-12-06T12:50:32.115Z,73.93
2022-12-06T12:52:59.549Z,69.60
2022-12-06T12:55:27.428Z,67.23
2022-12-06T12:57:55.471Z,66.93
2022-12-06T13:00:25.591Z,66.43
2022-12-06T13:02:56.510Z,71.53
2022-12-06T13:05:33.199Z,66.23
2022-12-06T13:08:19.908Z,66.30
2022-12-06T13:10:47.620Z,57.30
2022-12-06T13:13:18.992Z,61.80
2022-12-06T13:15:47.557Z,69.27
2022-12-06T13:18:21.520Z,63.73
2022-12-06T13:20:49.919Z,64.13
2022-12-06T13:23:19.088Z,62.47
2022-12-06T13:25:51.910Z,58.60
2022-12-06T13:28:22.903Z,66.27
2022-12-06T13:33:38.994Z,61.23
2022-12-06T13:36:07.037Z,63.40
2022-12-06T13:38:37.292Z,67.20
2022-12-06T13:41:04.765Z,58.97
2022-12-06T13:43:35.094Z,67.17
2022-12-06T13:46:09.522Z,62.67
2022-12-06T13:51:35.787Z,58.27
2022-12-06T13:56:52.010Z,57.80
2022-12-06T13:59:21.687Z,61.53
2022-12-06T14:01:52.352Z,57.60
2022-12-06T14:07:02.096Z,56.57
2022-12-06T14:09:36.811Z,62.10
2022-12-06T14:12:10.613Z,66.63
2022-12-06T14:14:37.447Z,65.03
2022-12-06T14:17:06.049Z,65.87
2022-12-06T14:19:39.317Z,62.70
2022-12-06T14:22:20.000Z,68.43
2022-12-06T14:27:46.901Z,67.47
2022-12-06T14:32:57.905Z,67.43
2022-12-06T14:35:24.591Z,63.37
2022-12-06T14:37:52.578Z,71.07
2022-12-06T14:43:15.310Z,70.83
2022-12-06T14:48:26.198Z,58.97
2022-12-06T14:50:58.824Z,57.87
2022-12-06T14:53:29.519Z,59.97
2022-12-06T14:55:59.837Z,62.63
2022-12-06T14:58:27.564Z,60.13
2022-12-06T15:00:54.462Z,62.20
2022-12-06T15:03:23.253Z,61.57
2022-12-06T15:05:52.244Z,65.27
2022-12-06T15:08:28.479Z,60.80
2022-12-06T15:10:59.778Z,55.17
2022-12-06T15:13:26.390Z,62.83
2022-12-06T15:16:05.320Z,55.17
2022-12-06T15:18:33.137Z,57.67
2022-12-06T15:20:59.706Z,58.70
2022-12-06T15:23:29.174Z,56.23
2022-12-06T15:25:55.932Z,61.17
2022-12-06T15:28:22.522Z,53.37
2022-12-06T15:30:49.501Z,56.00
2022-12-06T15:33:20.148Z,55.07
2022-12-06T15:35:46.955Z,59.07
2022-12-06T15:38:13.557Z,52.43
2022-12-06T15:40:49.276Z,54.10
2022-12-06T15:43:22.488Z,54.37
2022-12-06T15:45:49.144Z,53.73
2022-12-06T15:48:15.669Z,55.63
2022-12-06T15:50:42.308Z,58.67
2022-12-06T15:53:12.499Z,58.27
2022-12-06T15:55:39.171Z,58.00
2022-12-06T15:58:05.743Z,56.33
2022-12-06T16:00:32.352Z,49.83
2022-12-06T16:02:59.933Z,59.03
2022-12-06T16:08:10.849Z,57.83
2022-12-06T16:11:10.209Z,61.90
2022-12-06T16:13:24.184Z,91.87
2022-12-06T16:18:35.710Z,128.97
2022-12-06T16:21:03.891Z,150.37
2022-12-06T16:24:12.343Z,255.33
2022-12-06T16:29:25.144Z,190.13
2022-12-06T16:31:52.885Z,197.70
2022-12-06T16:34:19.761Z,110.13
2022-12-06T16:37:03.916Z,107.87
2022-12-06T16:39:30.928Z,114.90
2022-12-06T16:41:57.527Z,132.03
2022-12-06T16:44:24.181Z,113.57
2022-12-06T16:46:51.752Z,116.10
2022-12-06T16:49:45.293Z,165.80
2022-12-06T16:52:06.745Z,162.63
2022-12-06T16:54:34.338Z,172.67
2022-12-06T16:57:00.982Z,122.17
2022-12-06T16:59:27.537Z,100.20
2022-12-06T17:01:54.710Z,92.27
2022-12-06T17:04:21.343Z,77.77
2022-12-06T17:09:32.405Z,73.70
2022-12-06T17:14:56.802Z,87.40
2022-12-06T17:20:10.485Z,92.57
2022-12-06T17:25:21.705Z,94.83
2022-12-06T17:30:33.880Z,104.27
2022-12-06T17:33:03.363Z,109.77
2022-12-06T17:35:32.343Z,107.17
2022-12-06T17:38:00.537Z,100.83
2022-12-06T17:40:27.318Z,96.37
2022-12-06T17:42:59.970Z,95.30
2022-12-06T17:45:26.682Z,89.90
2022-12-06T17:47:53.288Z,102.20
2022-12-06T17:50:20.347Z,95.57
2022-12-06T17:52:47.884Z,92.07
2022-12-06T17:55:15.085Z,89.90
2022-12-06T17:57:41.832Z,80.43
2022-12-06T18:00:08.649Z,92.23
2022-12-06T18:02:35.437Z,87.20
2022-12-06T18:05:02.443Z,101.70
2022-12-06T18:07:29.278Z,102.87
2022-12-06T18:09:55.992Z,92.10
2022-12-06T18:12:22.679Z,100.20
2022-12-06T18:14:49.376Z,97.90
2022-12-06T18:17:16.066Z,97.80
2022-12-06T18:19:46.898Z,87.80
2022-12-06T18:22:14.669Z,98.30
2022-12-06T18:24:41.409Z,90.20
2022-12-06T18:27:08.236Z,93.97
2022-12-06T18:29:35.299Z,84.77
2022-12-06T18:32:02.203Z,81.40
2022-12-06T18:34:29.220Z,83.43
2022-12-06T18:36:55.969Z,91.33
2022-12-06T18:39:25.497Z,80.20
2022-12-06T18:41:52.644Z,76.33
2022-12-06T18:44:19.330Z,86.83
2022-12-06T18:46:46.579Z,82.80
2022-12-06T18:49:14.711Z,72.47
2022-12-06T18:54:28.375Z,75.40
2022-12-06T18:56:56.696Z,75.30
2022-12-06T18:59:27.633Z,80.03
2022-12-06T19:01:54.722Z,76.00
2022-12-06T19:07:06.795Z,72.60
2022-12-06T19:09:33.353Z,73.10
2022-12-06T19:11:59.974Z,77.27
2022-12-06T19:14:26.946Z,77.20
2022-12-06T19:16:55.027Z,73.37
2022-12-06T19:19:22.557Z,75.53
2022-12-06T19:21:52.257Z,79.57
2022-12-06T19:24:21.342Z,78.77
2022-12-06T19:26:49.062Z,76.83
2022-12-06T19:29:15.707Z,72.40
2022-12-06T19:31:42.567Z,79.23
2022-12-06T19:34:16.446Z,80.77
2022-12-06T19:36:43.789Z,66.13
2022-12-06T19:39:11.469Z,64.00
2022-12-06T19:41:58.117Z,67.57
2022-12-06T19:44:25.607Z,61.47
2022-12-06T19:46:52.569Z,63.47
2022-12-06T19:49:20.984Z,75.20
2022-12-06T19:51:47.748Z,67.47
2022-12-06T19:54:17.640Z,61.20
2022-12-06T19:56:44.391Z,60.73
2022-12-06T19:59:12.335Z,62.87
2022-12-06T20:01:47.096Z,59.60
2022-12-06T20:04:17.643Z,59.17
2022-12-06T20:06:44.374Z,63.77
2022-12-06T20:09:11.118Z,55.67
2022-12-06T20:11:56.380Z,60.53
2022-12-06T20:14:23.521Z,61.20
2022-12-06T20:16:50.575Z,63.47
2022-12-06T20:19:17.589Z,63.83
2022-12-06T20:24:30.303Z,68.77
2022-12-06T20:26:58.938Z,62.83
2022-12-06T20:29:27.212Z,63.23
2022-12-06T20:31:54.812Z,60.47
2022-12-06T20:34:22.980Z,64.17
2022-12-06T20:36:49.836Z,75.80
2022-12-06T20:39:21.063Z,60.70
2022-12-06T20:44:34.356Z,54.17
2022-12-06T20:47:01.748Z,58.73
2022-12-06T20:49:29.229Z,56.70
2022-12-06T20:51:56.785Z,56.67
2022-12-06T20:54:24.444Z,52.43
2022-12-06T20:56:52.130Z,57.10
2022-12-06T20:59:22.311Z,57.17
2022-12-06T21:01:49.527Z,54.50
2022-12-06T21:04:17.017Z,50.67
2022-12-06T21:06:43.885Z,56.17
2022-12-06T21:09:10.760Z,58.60
2022-12-06T21:11:37.683Z,56.10
2022-12-06T21:14:05.613Z,56.00
2022-12-06T21:16:33.532Z,63.23
2022-12-06T21:19:01.102Z,60.73
2022-12-06T21:24:22.272Z,52.13
2022-12-06T21:26:50.377Z,50.87
2022-12-06T21:29:17.984Z,53.90
2022-12-06T21:31:44.598Z,54.37
2022-12-06T21:34:14.652Z,51.27
2022-12-06T21:36:41.750Z,51.50
2022-12-06T21:39:10.169Z,50.03
2022-12-06T21:41:37.917Z,43.83
2022-12-06T21:44:04.564Z,44.87
2022-12-06T21:46:31.734Z,44.63
2022-12-06T21:48:58.840Z,48.40
2022-12-06T21:51:26.470Z,49.10
2022-12-06T21:53:54.945Z,47.10
2022-12-06T21:56:22.354Z,46.07
2022-12-06T21:58:49.598Z,53.93
2022-12-06T22:01:17.710Z,44.87
2022-12-06T22:06:31.656Z,50.77
2022-12-06T22:08:59.133Z,47.50
2022-12-06T22:11:25.985Z,48.87
2022-12-06T22:13:52.809Z,43.13
2022-12-06T22:16:19.453Z,47.30
2022-12-06T22:18:46.534Z,43.67
2022-12-06T22:21:15.042Z,42.63
2022-12-06T22:23:41.610Z,48.87
2022-12-06T22:26:13.285Z,43.57
2022-12-06T22:28:39.849Z,41.23
2022-12-06T22:31:10.269Z,40.27
2022-12-06T22:33:36.917Z,39.40
2022-12-06T22:36:03.671Z,40.67
2022-12-06T22:38:32.822Z,43.33
2022-12-06T22:40:59.601Z,35.80
2022-12-06T22:43:27.292Z,39.40
2022-12-06T22:45:53.914Z,42.87
2022-12-06T22:48:20.660Z,36.60
2022-12-06T22:50:47.280Z,41.90
2022-12-06T22:53:14.234Z,42.07
2022-12-06T22:55:40.858Z,43.17
2022-12-06T22:58:07.462Z,43.33
2022-12-06T23:00:34.154Z,40.83
2022-12-06T23:03:00.751Z,37.27
2022-12-06T23:05:27.277Z,36.43
2022-12-06T23:10:38.208Z,41.10
2022-12-06T23:15:54.582Z,35.53
2022-12-06T23:18:21.233Z,33.00
2022-12-06T23:20:47.705Z,33.03
2022-12-06T23:23:16.649Z,32.00
2022-12-06T23:25:43.253Z,31.53
2022-12-06T23:28:09.833Z,35.33
2022-12-06T23:30:36.374Z,32.40
2022-12-06T23:33:02.998Z,30.70
2022-12-06T23:35:29.574Z,28.40
2022-12-06T23:37:56.162Z,24.47
2022-12-06T23:40:22.733Z,25.87
2022-12-06T23:42:50.404Z,28.57
2022-12-06T23:45:16.985Z,31.57
2022-12-06T23:47:44.432Z,23.83
2022-12-06T23:50:10.988Z,29.37
2022-12-06T23:52:37.525Z,27.97
2022-12-06T23:55:04.254Z,28.07
2022-12-06T23:57:31.110Z,30.37
2022-12-06T23:59:57.664Z,27.90
